Time;durP1;ratioP1;P1;durP2;ratioP2;P2;SDS_P1;SDS_P2;PMS_P1;PMS_P2;Temp;Humidity;BMP_temperature;BMP_pressure;BME280_temperature;BME280_humidity;BME280_pressure;Samples;Min_cycle;Max_cycle;Signal;HPM_P1;HPM_P2
2020/12/24 00:00:08;;;;;;;1.73;0.52;;;;;;;12.54;64.42;99315.69;3822007;23;20021;-77
2020/12/24 00:01:51;;;;;;;3.38;0.70;;;;;;;12.48;65.09;99311.88;3824812;23;20561;-78
2020/12/24 00:03:30;;;;;;;2.88;0.60;;;;;;;12.45;65.00;99310.38;3825140;23;20044;-76
2020/12/24 00:05:06;;;;;;;1.73;0.52;;;;;;;12.42;65.81;99312.56;3828618;23;20025;-77
2020/12/24 00:06:43;;;;;;;5.18;0.60;;;;;;;12.39;65.91;99299.50;3826376;23;20113;-77
2020/12/24 00:08:21;;;;;;;1.73;0.70;;;;;;;12.45;65.96;99286.25;3831511;23;20449;-77
2020/12/24 00:09:53;;;;;;;2.55;0.60;;;;;;;12.44;66.13;99291.78;3827693;23;20021;-76
2020/12/24 00:11:27;;;;;;;1.58;0.52;;;;;;;12.40;66.37;99294.00;3836199;23;20570;-77
2020/12/24 00:13:10;;;;;;;1.98;0.95;;;;;;;12.38;66.53;99298.69;3828649;23;20022;-76
2020/12/24 00:14:51;;;;;;;2.92;0.43;;;;;;;12.32;66.92;99318.97;3826368;23;20032;-77
2020/12/24 00:16:22;;;;;;;3.15;0.70;;;;;;;12.30;67.33;99301.41;3829163;23;20021;-77
2020/12/24 00:18:06;;;;;;;2.55;0.63;;;;;;;12.32;67.49;99312.81;3826389;23;20025;-77
2020/12/24 00:19:41;;;;;;;0.95;0.38;;;;;;;12.36;67.25;99306.06;3829474;23;20053;-76
2020/12/24 00:21:21;;;;;;;0.77;0.32;;;;;;;12.34;67.47;99302.72;3825640;23;20018;-78
2020/12/24 00:22:52;;;;;;;2.58;0.55;;;;;;;12.31;67.61;99311.13;3829002;23;20025;-77
2020/12/24 00:24:23;;;;;;;1.15;0.50;;;;;;;12.30;67.71;99312.94;3822951;23;20028;-77
2020/12/24 00:26:02;;;;;;;2.05;0.50;;;;;;;12.36;67.65;99307.91;3824189;23;20021;-78
2020/12/24 00:27:51;;;;;;;1.95;0.50;;;;;;;12.32;67.71;99324.34;3822454;23;20124;-77
2020/12/24 00:29:24;;;;;;;2.15;0.68;;;;;;;12.25;67.95;99320.69;3829705;23;20394;-77
2020/12/24 00:30:59;;;;;;;2.20;0.60;;;;;;;12.31;67.84;99328.03;3825920;23;20021;-76
2020/12/24 00:32:53;;;;;;;1.55;0.63;;;;;;;12.30;67.94;99323.66;3826096;23;20025;-76
2020/12/24 00:34:35;;;;;;;2.00;0.98;;;;;;;12.29;67.76;99321.19;3830295;23;20025;-77
2020/12/24 00:36:07;;;;;;;2.97;0.52;;;;;;;12.29;68.01;99322.00;3824940;23;20021;-76
2020/12/24 00:37:51;;;;;;;2.58;0.60;;;;;;;12.32;68.09;99323.53;3829632;23;20041;-77
2020/12/24 00:39:22;;;;;;;1.65;0.50;;;;;;;12.29;68.07;99323.84;3827081;23;20021;-77
2020/12/24 00:40:59;;;;;;;2.17;0.60;;;;;;;12.32;67.99;99327.03;3829846;23;20025;-76
2020/12/24 00:42:34;;;;;;;2.35;0.60;;;;;;;12.33;67.90;99320.66;3827777;23;20017;-77
2020/12/24 00:44:06;;;;;;;1.95;0.50;;;;;;;12.38;68.10;99313.91;3829109;23;20022;-76
2020/12/24 00:45:42;;;;;;;1.83;0.47;;;;;;;12.37;68.00;99310.41;3826353;23;20021;-77
2020/12/24 00:47:29;;;;;;;1.77;0.60;;;;;;;12.35;68.25;99327.69;3828002;23;20056;-77
2020/12/24 00:49:13;;;;;;;1.63;0.50;;;;;;;12.36;68.22;99322.16;3823605;23;20021;-77
2020/12/24 00:50:47;;;;;;;1.67;0.95;;;;;;;12.32;68.29;99308.25;3825204;23;20028;-77
2020/12/24 00:52:20;;;;;;;2.40;0.60;;;;;;;12.34;68.46;99313.44;3827711;23;20025;-77
2020/12/24 00:53:52;;;;;;;2.50;0.50;;;;;;;12.31;68.47;99311.13;3824654;23;20041;-76
2020/12/24 00:55:24;;;;;;;2.63;0.63;;;;;;;12.29;68.32;99307.78;3826064;23;20443;-76
2020/12/24 00:56:59;;;;;;;2.28;0.85;;;;;;;12.31;68.18;99301.22;3822763;23;20033;-77
2020/12/24 00:58:31;;;;;;;1.95;0.52;;;;;;;12.39;67.84;99296.84;3824099;23;20342;-77
2020/12/24 01:00:07;;;;;;;2.38;0.70;;;;;;;12.38;67.67;99284.44;3817948;23;20024;-77
2020/12/24 01:01:53;;;;;;;1.23;0.40;;;;;;;12.42;67.55;99296.50;3824234;23;20504;-77
2020/12/24 01:03:24;;;;;;;1.65;0.50;;;;;;;12.33;67.58;99299.22;3819359;23;20022;-77
2020/12/24 01:04:57;;;;;;;1.38;0.50;;;;;;;12.35;67.34;99298.22;3823032;23;20031;-77
2020/12/24 01:06:31;;;;;;;1.60;0.50;;;;;;;12.27;66.23;99302.59;3819954;23;20470;-76
2020/12/24 01:08:09;;;;;;;2.00;0.45;;;;;;;12.25;65.22;99301.94;3822481;23;20045;-77
2020/12/24 01:09:45;;;;;;;2.78;0.50;;;;;;;12.35;65.30;99285.63;3820759;23;20466;-77
2020/12/24 01:11:25;;;;;;;1.80;0.52;;;;;;;12.40;64.76;99277.06;3824318;23;20033;-77
2020/12/24 01:13:00;;;;;;;3.45;0.70;;;;;;;12.25;63.63;99288.53;3819591;23;20072;-77
2020/12/24 01:14:33;;;;;;;2.72;0.80;;;;;;;12.24;63.45;99305.63;3806523;23;20029;-76
2020/12/24 01:16:07;;;;;;;2.42;0.65;;;;;;;12.23;61.41;99311.16;3820221;23;20025;-76
2020/12/24 01:19:31;;;;;;;2.88;0.57;;;;;;;12.16;58.06;99309.16;3820655;23;20025;-76
2020/12/24 01:21:02;;;;;;;3.95;0.57;;;;;;;12.19;58.16;99307.16;3816465;23;20018;-76
2020/12/24 01:22:36;;;;;;;1.15;0.40;;;;;;;12.26;57.75;99308.97;3820119;23;20102;-75
2020/12/24 01:24:09;;;;;;;3.25;0.55;;;;;;;12.16;56.41;99287.72;3816986;23;20028;-77
2020/12/24 01:25:45;;;;;;;1.75;0.40;;;;;;;12.21;55.54;99283.69;3820674;23;20018;-76
2020/12/24 01:27:16;;;;;;;1.25;0.40;;;;;;;12.13;55.16;99282.72;3819202;23;20025;-77
2020/12/24 01:28:48;;;;;;;2.03;0.55;;;;;;;12.13;55.38;99300.63;3827344;23;20021;-78
2020/12/24 01:30:24;;;;;;;6.47;0.55;;;;;;;12.15;55.47;99307.47;3822747;23;20018;-77
2020/12/24 01:31:59;;;;;;;2.45;0.73;;;;;;;12.10;55.11;99303.66;3826939;23;20129;-76
2020/12/24 01:33:30;;;;;;;1.58;0.43;;;;;;;12.12;55.69;99299.81;3819841;23;20117;-76
2020/12/24 01:35:08;;;;;;;1.80;0.40;;;;;;;12.18;55.40;99300.97;3822370;23;20033;-75
2020/12/24 01:36:40;;;;;;;2.45;0.40;;;;;;;12.16;55.51;99306.47;3818594;23;20025;-75
2020/12/24 01:38:12;;;;;;;2.20;0.60;;;;;;;12.13;55.70;99309.53;3821394;23;20025;-77
2020/12/24 01:39:49;;;;;;;1.60;0.50;;;;;;;12.08;55.49;99313.72;3819069;23;20028;-76
2020/12/24 01:41:27;;;;;;;1.02;0.40;;;;;;;12.10;55.45;99323.25;3822939;23;20021;-76
2020/12/24 01:43:00;;;;;;;2.47;0.50;;;;;;;12.14;55.71;99337.13;3819090;23;20459;-76
2020/12/24 01:44:33;;;;;;;1.35;0.50;;;;;;;12.09;55.81;99320.75;3821758;23;20026;-76
2020/12/24 01:46:05;;;;;;;2.10;0.63;;;;;;;12.02;55.92;99304.53;3831031;23;20037;-76
2020/12/24 01:47:37;;;;;;;1.33;0.50;;;;;;;12.00;56.28;99296.66;3828586;23;20025;-77
2020/12/24 01:49:23;;;;;;;2.40;0.70;;;;;;;11.96;56.90;99327.44;3832414;23;20026;-77
2020/12/24 01:51:10;;;;;;;2.15;1.02;;;;;;;11.96;57.07;99332.81;3829613;23;20028;-77
2020/12/24 01:52:50;;;;;;;2.05;0.60;;;;;;;11.92;57.08;99328.78;3829884;23;20030;-76
2020/12/24 01:54:24;;;;;;;1.10;0.50;;;;;;;11.87;55.43;99307.06;3818390;23;20021;-78
2020/12/24 01:55:57;;;;;;;3.10;0.70;;;;;;;11.88;53.15;99314.09;3821911;23;20021;-76
2020/12/24 01:57:29;;;;;;;3.72;0.80;;;;;;;11.89;52.88;99325.63;3818265;23;20029;-75
2020/12/24 01:59:00;;;;;;;2.45;0.52;;;;;;;11.92;53.12;99336.00;3821879;23;20025;-76
2020/12/24 02:00:31;;;;;;;2.67;0.57;;;;;;;11.91;52.27;99331.66;3817675;23;20017;-76
2020/12/24 02:02:03;;;;;;;1.80;0.68;;;;;;;12.00;52.16;99314.56;3821373;23;20033;-75
2020/12/24 02:03:34;;;;;;;1.00;0.40;;;;;;;11.86;52.92;99302.69;3817672;23;20021;-76
2020/12/24 02:05:06;;;;;;;2.22;0.50;;;;;;;11.94;53.17;99305.34;3820924;23;20033;-75
2020/12/24 02:06:39;;;;;;;2.88;0.70;;;;;;;11.96;52.29;99305.16;3818093;23;20017;-76
2020/12/24 02:08:11;;;;;;;3.42;0.80;;;;;;;11.88;52.44;99295.34;3820823;23;20095;-76
2020/12/24 02:09:50;;;;;;;4.00;0.52;;;;;;;11.92;52.89;99312.72;3818137;23;20084;-76
2020/12/24 02:11:22;;;;;;;1.35;0.40;;;;;;;11.86;53.65;99324.13;3821272;23;20029;-76
2020/12/24 02:12:53;;;;;;;1.48;0.40;;;;;;;11.92;53.60;99331.47;3817311;23;20021;-76
2020/12/24 02:14:25;;;;;;;3.15;0.70;;;;;;;11.88;53.94;99332.81;3821069;23;20022;-76
2020/12/24 02:15:59;;;;;;;3.10;0.50;;;;;;;11.89;54.25;99331.81;3817470;23;20022;-77
2020/12/24 02:17:30;;;;;;;3.55;0.88;;;;;;;11.83;54.92;99336.00;3817875;23;20363;-76
2020/12/24 02:19:02;;;;;;;2.97;0.73;;;;;;;11.81;55.69;99323.78;3820972;23;20100;-75
2020/12/24 02:20:42;;;;;;;2.85;0.70;;;;;;;11.76;57.03;99324.28;3817325;23;20026;-76
2020/12/24 02:22:17;;;;;;;2.92;0.50;;;;;;;11.70;58.21;99330.34;3820712;23;20403;-77
2020/12/24 02:23:49;;;;;;;1.23;0.40;;;;;;;11.69;58.28;99323.31;3817342;23;23806;-76
2020/12/24 02:25:27;;;;;;;2.38;0.47;;;;;;;11.57;58.54;99301.41;3820758;23;20092;-76
2020/12/24 02:26:59;;;;;;;2.55;0.60;;;;;;;11.60;58.67;99297.56;3817860;23;20021;-75
2020/12/24 02:28:31;;;;;;;3.47;0.63;;;;;;;11.53;58.65;99292.03;3820673;23;20022;-76
2020/12/24 02:30:03;;;;;;;2.30;0.50;;;;;;;11.47;58.80;99276.66;3816830;23;20524;-75
2020/12/24 02:31:34;;;;;;;4.13;0.52;;;;;;;11.47;58.50;99284.69;3820344;23;20030;-75
2020/12/24 02:33:06;;;;;;;2.20;0.50;;;;;;;11.41;58.64;99304.13;3816783;23;20022;-76
2020/12/24 02:34:37;;;;;;;2.65;0.57;;;;;;;11.41;58.72;99293.41;3820726;23;20068;-76
2020/12/24 02:36:12;;;;;;;1.48;0.50;;;;;;;11.34;58.81;99287.88;3817021;23;20025;-76
2020/12/24 02:37:43;;;;;;;1.50;0.45;;;;;;;11.26;59.03;99286.03;3821014;23;20458;-77
2020/12/24 02:39:15;;;;;;;1.38;0.40;;;;;;;11.22;59.37;99282.03;3816364;23;20037;-77
2020/12/24 02:40:59;;;;;;;1.63;0.47;;;;;;;11.24;59.21;99277.38;3824207;23;20026;-76
2020/12/24 02:42:30;;;;;;;2.75;0.55;;;;;;;11.22;59.51;99276.69;3822818;23;20025;-77
2020/12/24 02:44:01;;;;;;;4.30;0.50;;;;;;;11.14;59.79;99279.38;3827009;23;20021;-77
2020/12/24 02:45:33;;;;;;;1.88;0.45;;;;;;;11.19;59.80;99285.88;3820541;23;20497;-76
2020/12/24 02:47:06;;;;;;;1.90;0.50;;;;;;;11.18;59.88;99286.03;3820290;23;20463;-76
2020/12/24 02:48:37;;;;;;;2.47;0.75;;;;;;;11.08;60.33;99268.31;3816876;23;20024;-76
2020/12/24 02:50:09;;;;;;;2.55;0.45;;;;;;;11.06;60.34;99273.00;3820248;23;20021;-76
2020/12/24 02:51:44;;;;;;;1.42;0.50;;;;;;;11.08;60.39;99281.69;3817197;23;20051;-75
2020/12/24 02:53:14;;;;;;;1.13;0.57;;;;;;;11.11;60.46;99280.53;3820427;23;20033;-76
2020/12/24 02:54:46;;;;;;;1.52;0.40;;;;;;;11.01;60.78;99271.81;3816297;23;20362;-76
2020/12/24 02:59:40;;;;;;;1.00;0.50;;;;;;;10.89;61.12;99296.25;3816337;22;20024;-75
2020/12/24 03:01:11;;;;;;;1.98;0.50;;;;;;;10.91;61.08;99309.44;3820488;23;20025;-75
2020/12/24 03:02:43;;;;;;;3.38;0.70;;;;;;;10.91;61.14;99301.41;3816766;23;20072;-76
2020/12/24 03:04:15;;;;;;;1.48;0.40;;;;;;;10.84;61.32;99295.06;3820320;23;20448;-79
2020/12/24 03:05:46;;;;;;;1.60;0.50;;;;;;;10.80;61.63;99286.53;3816917;23;20072;-77
2020/12/24 03:07:18;;;;;;;2.78;0.55;;;;;;;10.72;61.56;99275.84;3819771;23;20068;-75
2020/12/24 03:08:50;;;;;;;2.15;0.63;;;;;;;10.74;61.76;99272.00;3816562;23;20470;-75
2020/12/24 03:10:21;;;;;;;2.25;0.63;;;;;;;10.69;61.93;99260.94;3820855;23;20025;-75
2020/12/24 03:11:53;;;;;;;1.83;0.50;;;;;;;10.69;61.85;99255.59;3815808;23;20018;-75
2020/12/24 03:13:28;;;;;;;2.78;0.80;;;;;;;10.62;62.11;99254.59;3820106;23;20025;-75
2020/12/24 03:14:59;;;;;;;2.58;0.55;;;;;;;10.60;62.23;99264.59;3815552;23;20455;-75
2020/12/24 03:16:32;;;;;;;2.80;0.70;;;;;;;10.67;62.19;99265.63;3820344;23;20028;-75
2020/12/24 03:18:05;;;;;;;2.75;0.50;;;;;;;10.62;62.25;99251.91;3815386;23;20018;-75
2020/12/24 03:19:43;;;;;;;1.05;0.40;;;;;;;10.62;62.43;99251.91;3820810;23;20454;-75
2020/12/24 03:21:14;;;;;;;1.58;0.43;;;;;;;10.64;62.30;99227.69;3815921;23;20018;-76
2020/12/24 03:22:46;;;;;;;1.90;0.50;;;;;;;10.65;62.23;99240.03;3819992;23;20582;-76
2020/12/24 03:24:18;;;;;;;1.23;0.57;;;;;;;10.66;62.28;99239.06;3815435;23;20068;-76
2020/12/24 03:25:49;;;;;;;2.55;0.63;;;;;;;10.60;62.28;99251.22;3820251;23;20025;-78
2020/12/24 03:27:21;;;;;;;1.25;0.40;;;;;;;10.62;62.41;99273.28;3813432;23;20357;-75
2020/12/24 03:28:52;;;;;;;2.08;0.55;;;;;;;10.69;62.38;99274.31;3820478;23;20081;-76
2020/12/24 03:30:24;;;;;;;1.58;0.40;;;;;;;10.59;62.53;99253.09;3815446;23;20017;-76
2020/12/24 03:31:57;;;;;;;2.97;0.50;;;;;;;10.57;62.60;99259.59;3820292;23;20082;-75
2020/12/24 03:33:28;;;;;;;1.85;0.50;;;;;;;10.60;62.56;99261.94;3815210;23;20031;-76
2020/12/24 03:35:00;;;;;;;1.98;0.57;;;;;;;10.64;62.48;99257.09;3820171;23;20032;-75
2020/12/24 03:36:32;;;;;;;3.42;0.75;;;;;;;10.59;62.81;99258.44;3814704;23;20493;-76
2020/12/24 03:38:06;;;;;;;2.05;0.50;;;;;;;10.60;63.33;99257.44;3820894;23;20092;-75
2020/12/24 03:39:45;;;;;;;2.75;0.40;;;;;;;10.61;63.84;99240.41;3820659;23;20028;-77
2020/12/24 03:41:19;;;;;;;3.55;0.82;;;;;;;10.56;64.06;99249.91;3830457;23;20021;-76
2020/12/24 03:42:50;;;;;;;4.00;0.70;;;;;;;10.50;64.00;99238.03;3814973;23;20017;-76
2020/12/24 03:44:22;;;;;;;1.60;0.80;;;;;;;10.57;63.97;99241.72;3820211;23;20018;-75
2020/12/24 03:45:53;;;;;;;1.30;0.50;;;;;;;10.62;63.94;99238.53;3814960;23;20332;-76
2020/12/24 03:47:25;;;;;;;2.85;0.50;;;;;;;10.68;63.83;99251.25;3819980;23;20028;-76
2020/12/24 03:48:56;;;;;;;2.30;0.60;;;;;;;10.69;63.88;99252.91;3815981;23;20049;-76
2020/12/24 03:50:28;;;;;;;3.25;0.60;;;;;;;10.65;64.03;99259.59;3820314;23;20336;-76
2020/12/24 03:51:59;;;;;;;2.88;0.70;;;;;;;10.66;64.19;99266.63;3818065;23;20467;-76
2020/12/24 03:53:33;;;;;;;2.05;0.77;;;;;;;10.60;63.84;99267.28;3814894;23;20079;-76
2020/12/24 03:55:04;;;;;;;1.90;0.60;;;;;;;10.59;64.16;99262.91;3820383;23;20025;-76
2020/12/24 03:56:36;;;;;;;1.48;0.65;;;;;;;10.66;64.02;99263.97;3815629;23;20033;-76
2020/12/24 03:58:07;;;;;;;1.40;0.55;;;;;;;10.67;63.91;99259.44;3819617;23;20352;-76
2020/12/24 03:59:39;;;;;;;1.13;0.50;;;;;;;10.77;63.71;99266.28;3814851;23;20025;-76
2020/12/24 04:01:10;;;;;;;1.42;0.50;;;;;;;10.80;63.68;99261.63;3820471;23;20455;-76
2020/12/24 04:02:42;;;;;;;1.65;0.47;;;;;;;10.77;63.64;99257.44;3816558;23;20443;-76
2020/12/24 04:04:14;;;;;;;2.28;0.60;;;;;;;10.79;63.57;99250.09;3819722;23;20025;-76
2020/12/24 04:05:46;;;;;;;1.20;0.50;;;;;;;10.84;63.54;99244.25;3816249;23;20063;-76
2020/12/24 04:07:23;;;;;;;2.00;0.60;;;;;;;10.83;63.32;99237.25;3819982;23;20026;-77
2020/12/24 04:08:56;;;;;;;2.80;0.60;;;;;;;10.80;63.48;99240.22;3815407;23;20458;-76
2020/12/24 04:10:28;;;;;;;2.38;0.60;;;;;;;10.82;63.53;99240.91;3820054;23;20022;-76
2020/12/24 04:11:59;;;;;;;3.45;0.60;;;;;;;10.83;63.41;99242.59;3814753;23;20100;-77
2020/12/24 04:13:33;;;;;;;2.78;0.50;;;;;;;10.79;63.30;99236.75;3819975;23;20022;-75
2020/12/24 04:15:06;;;;;;;4.22;0.50;;;;;;;10.73;63.80;99248.06;3815705;23;20018;-76
2020/12/24 04:16:37;;;;;;;2.00;0.50;;;;;;;10.68;63.94;99243.22;3820095;23;20316;-76
2020/12/24 04:18:09;;;;;;;3.15;0.82;;;;;;;10.67;63.96;99252.28;3815333;23;20025;-76
2020/12/24 04:19:40;;;;;;;2.13;0.60;;;;;;;10.69;64.36;99260.13;3820079;23;20072;-76
2020/12/24 04:21:11;;;;;;;2.10;0.50;;;;;;;10.54;65.55;99260.75;3815726;23;20356;-78
2020/12/24 04:22:43;;;;;;;3.25;0.60;;;;;;;10.48;65.64;99261.41;3821374;23;20079;-75
2020/12/24 04:24:16;;;;;;;5.22;0.93;;;;;;;10.45;65.68;99267.06;3816817;23;20444;-75
2020/12/24 04:25:47;;;;;;;3.38;0.55;;;;;;;10.34;65.84;99254.00;3820117;23;20022;-76
2020/12/24 04:27:19;;;;;;;2.08;0.60;;;;;;;10.39;65.86;99267.72;3816013;23;20252;-76
2020/12/24 04:28:57;;;;;;;1.83;0.40;;;;;;;10.45;65.87;99267.91;3825893;23;20022;-75
2020/12/24 04:30:29;;;;;;;2.35;0.40;;;;;;;10.45;65.75;99259.91;3814519;23;20024;-75
2020/12/24 04:32:02;;;;;;;3.97;0.50;;;;;;;10.36;65.30;99258.19;3819903;23;20022;-75
2020/12/24 04:33:33;;;;;;;2.28;0.70;;;;;;;10.33;65.69;99268.34;3819839;23;20021;-76
2020/12/24 04:35:06;;;;;;;2.90;0.57;;;;;;;10.40;65.52;99270.22;3825508;23;20104;-76
2020/12/24 04:36:37;;;;;;;1.85;0.45;;;;;;;10.40;65.38;99256.88;3820847;23;20037;-76
2020/12/24 04:38:16;;;;;;;1.60;0.63;;;;;;;10.35;65.07;99247.63;3821914;23;20486;-75
2020/12/24 04:39:49;;;;;;;1.90;0.60;;;;;;;10.31;65.40;99249.78;3817947;23;20025;-75
2020/12/24 04:41:21;;;;;;;1.80;0.50;;;;;;;10.28;65.05;99253.63;3822380;23;20033;-75
2020/12/24 04:42:54;;;;;;;3.17;0.70;;;;;;;10.27;64.99;99267.16;3817604;23;20033;-75
2020/12/24 04:44:26;;;;;;;3.45;1.00;;;;;;;10.02;66.46;99269.72;3821834;23;20026;-75
2020/12/24 04:46:53;;;;;;;4.45;0.70;;;;;;;9.92;67.72;99275.19;3815972;23;20029;-75
2020/12/24 04:48:46;;;;;;;2.85;0.60;;;;;;;9.79;68.34;99272.97;3821243;23;20022;-76
2020/12/24 04:50:18;;;;;;;2.30;0.60;;;;;;;9.75;67.75;99270.78;3829277;23;20032;-77
2020/12/24 04:51:56;;;;;;;2.75;0.50;;;;;;;9.77;68.70;99274.94;3823329;23;20032;-75
2020/12/24 04:53:27;;;;;;;1.27;0.35;;;;;;;9.65;68.38;99266.38;3829696;23;20032;-76
2020/12/24 04:55:07;;;;;;;1.33;0.40;;;;;;;9.66;68.28;99256.53;3825353;23;20021;-76
2020/12/24 04:56:51;;;;;;;2.35;0.50;;;;;;;9.69;68.47;99261.56;3824673;23;20030;-76
2020/12/24 04:58:23;;;;;;;1.30;0.52;;;;;;;9.64;68.24;99251.38;3828196;23;20021;-75
2020/12/24 04:59:58;;;;;;;2.35;0.40;;;;;;;9.67;68.21;99252.88;3818403;23;20024;-76
2020/12/24 05:01:41;;;;;;;1.13;0.40;;;;;;;9.61;67.92;99248.19;3832237;23;20036;-76
2020/12/24 05:03:36;;;;;;;1.48;0.40;;;;;;;9.63;68.14;99256.88;3826345;23;20044;-75
2020/12/24 05:06:49;;;;;;;3.37;0.60;;;;;;;9.65;68.15;99249.53;3825524;23;20021;-75
2020/12/24 05:08:23;;;;;;;1.88;0.50;;;;;;;9.71;68.38;99250.72;3828560;23;20025;-77
2020/12/24 05:10:02;;;;;;;1.58;0.60;;;;;;;9.65;68.51;99244.19;3822638;22;20026;-75
2020/12/24 05:11:39;;;;;;;2.40;0.57;;;;;;;9.68;68.28;99249.22;3820710;23;20025;-75
2020/12/24 05:13:35;;;;;;;2.08;0.68;;;;;;;9.73;68.27;99257.56;3821479;23;20021;-75
2020/12/24 05:15:33;;;;;;;1.98;0.80;;;;;;;9.72;68.11;99253.25;3814890;23;20018;-75
2020/12/24 05:17:16;;;;;;;2.97;0.47;;;;;;;9.69;68.05;99248.22;3822013;23;20022;-75
2020/12/24 05:18:47;;;;;;;2.97;0.70;;;;;;;9.72;67.99;99244.38;3813983;23;20029;-78
2020/12/24 05:20:18;;;;;;;3.83;0.63;;;;;;;9.73;68.24;99244.22;3819190;23;20545;-79
2020/12/24 05:21:50;;;;;;;1.60;0.60;;;;;;;9.72;68.23;99245.25;3816185;22;20076;-79
2020/12/24 05:23:22;;;;;;;2.17;0.60;;;;;;;9.77;68.13;99242.09;3817981;23;20025;-79
2020/12/24 05:24:53;;;;;;;2.63;0.40;;;;;;;9.82;67.91;99243.25;3816499;23;20026;-79
2020/12/24 05:26:25;;;;;;;1.40;0.40;;;;;;;9.79;67.91;99240.09;3818534;23;20026;-78
2020/12/24 05:27:58;;;;;;;1.65;0.52;;;;;;;9.80;67.74;99236.41;3813348;23;20033;-79
2020/12/24 05:29:29;;;;;;;2.33;0.60;;;;;;;9.75;67.90;99244.09;3821671;23;20277;-79
2020/12/24 05:31:01;;;;;;;1.27;0.50;;;;;;;9.74;67.91;99240.56;3821105;23;20026;-79
2020/12/24 05:32:47;;;;;;;2.05;0.50;;;;;;;9.68;67.98;99243.88;3818792;22;20022;-80
2020/12/24 05:34:21;;;;;;;4.47;0.73;;;;;;;9.72;67.92;99234.56;3819174;23;20350;-79
2020/12/24 05:35:52;;;;;;;3.22;0.60;;;;;;;9.74;67.92;99237.88;3817556;23;20081;-78
2020/12/24 05:37:25;;;;;;;1.58;0.50;;;;;;;9.76;67.70;99227.91;3817677;23;20025;-79
2020/12/24 05:38:56;;;;;;;3.85;0.52;;;;;;;9.75;67.80;99238.75;3818336;23;20021;-79
2020/12/24 05:40:29;;;;;;;1.65;0.60;;;;;;;9.73;67.79;99228.22;3820990;23;20343;-79
2020/12/24 05:42:04;;;;;;;0.85;0.50;;;;;;;9.74;67.67;99221.88;3817427;22;20328;-80
2020/12/24 05:43:41;;;;;;;3.40;0.63;;;;;;;9.72;67.89;99223.03;3820841;23;20026;-79
2020/12/24 05:45:16;;;;;;;1.95;0.40;;;;;;;9.69;67.80;99216.19;3818079;23;20079;-80
2020/12/24 05:46:49;;;;;;;1.05;0.60;;;;;;;9.67;67.67;99216.38;3821140;23;20085;-80
2020/12/24 05:48:19;;;;;;;2.38;0.60;;;;;;;9.65;67.81;99215.69;3818517;23;20025;-80
2020/12/24 05:49:51;;;;;;;1.52;0.60;;;;;;;9.61;67.30;99210.81;3821927;23;20032;-79
2020/12/24 05:51:22;;;;;;;0.77;0.40;;;;;;;9.63;67.18;99203.50;3817150;23;20033;-80
2020/12/24 05:53:03;;;;;;;3.72;0.70;;;;;;;9.61;66.92;99200.16;3820026;23;20022;-79
2020/12/24 05:54:35;;;;;;;2.40;0.40;;;;;;;9.59;66.77;99197.63;3819179;23;20040;-80
2020/12/24 05:56:07;;;;;;;3.50;0.55;;;;;;;9.61;66.80;99189.47;3818227;23;20025;-78
2020/12/24 05:57:40;;;;;;;2.72;0.75;;;;;;;9.60;66.77;99185.94;3819172;23;20053;-79
2020/12/24 05:59:16;;;;;;;5.88;1.30;;;;;;;9.63;66.54;99196.31;3818057;23;20025;-79
2020/12/24 06:00:47;;;;;;;2.40;0.50;;;;;;;9.61;66.42;99200.16;3821059;23;20036;-79
2020/12/24 06:02:22;;;;;;;1.92;0.60;;;;;;;9.52;66.34;99191.25;3824409;23;20036;-78
2020/12/24 06:04:03;;;;;;;1.30;0.32;;;;;;;9.49;66.22;99186.25;3816125;23;20025;-78
2020/12/24 06:05:55;;;;;;;2.17;0.70;;;;;;;9.52;66.23;99184.09;3815777;23;20474;-79
2020/12/24 06:07:35;;;;;;;2.88;0.73;;;;;;;9.58;66.13;99173.78;3814308;23;20485;-78
2020/12/24 06:09:13;;;;;;;3.13;0.40;;;;;;;9.56;66.04;99175.75;3816989;23;20056;-78
2020/12/24 06:10:45;;;;;;;0.32;0.32;;;;;;;9.65;65.86;99159.63;3818118;23;20029;-78
2020/12/24 06:12:19;;;;;;;2.67;0.70;;;;;;;9.66;65.79;99155.97;3815827;23;20032;-79
2020/12/24 06:13:58;;;;;;;2.65;0.60;;;;;;;9.50;65.61;99151.41;3817525;23;20029;-78
2020/12/24 06:15:32;;;;;;;5.40;0.80;;;;;;;9.52;65.96;99153.91;3815547;23;20021;-78
2020/12/24 06:17:06;;;;;;;2.60;0.60;;;;;;;9.51;66.03;99150.41;3819751;23;20026;-78
2020/12/24 06:18:39;;;;;;;3.55;0.65;;;;;;;9.49;66.08;99146.22;3816306;23;20037;-78
2020/12/24 06:20:18;;;;;;;2.28;0.80;;;;;;;9.47;66.04;99146.38;3818944;23;20025;-79
2020/12/24 06:21:49;;;;;;;1.92;0.68;;;;;;;9.47;66.35;99145.56;3815852;23;20068;-78
2020/12/24 06:23:20;;;;;;;1.98;0.50;;;;;;;9.50;66.50;99142.53;3819767;23;20029;-77
2020/12/24 06:24:53;;;;;;;1.27;0.50;;;;;;;9.52;66.64;99144.06;3817656;23;20095;-78
2020/12/24 06:26:28;;;;;;;3.40;0.80;;;;;;;9.56;66.36;99147.25;3818591;23;20585;-80
2020/12/24 06:28:02;;;;;;;3.53;0.98;;;;;;;9.54;66.61;99151.09;3816387;23;20108;-78
2020/12/24 06:29:39;;;;;;;1.15;0.40;;;;;;;9.62;66.32;99146.59;3817103;23;20030;-78
2020/12/24 06:31:12;;;;;;;3.60;0.75;;;;;;;9.59;66.38;99146.09;3818951;23;20080;-78
2020/12/24 06:32:47;;;;;;;2.42;0.50;;;;;;;9.64;66.09;99144.63;3817418;23;20450;-77
2020/12/24 06:34:23;;;;;;;3.33;0.70;;;;;;;9.62;66.07;99149.28;3819146;23;20028;-78
2020/12/24 06:35:55;;;;;;;2.17;0.50;;;;;;;9.65;66.03;99140.09;3816347;23;20032;-77
2020/12/24 06:37:26;;;;;;;3.08;0.70;;;;;;;9.64;65.71;99141.94;3818229;23;20044;-77
2020/12/24 06:38:58;;;;;;;2.92;0.90;;;;;;;9.69;65.75;99138.81;3816893;23;20445;-78
2020/12/24 06:40:32;;;;;;;5.22;1.05;;;;;;;9.73;65.34;99140.13;3823184;23;20033;-77
2020/12/24 06:42:03;;;;;;;2.25;0.50;;;;;;;9.76;65.60;99134.47;3820220;23;20018;-77
2020/12/24 06:43:40;;;;;;;2.30;0.60;;;;;;;9.74;65.48;99133.78;3819283;23;20044;-78
2020/12/24 06:45:14;;;;;;;2.95;0.80;;;;;;;9.76;65.61;99133.66;3816964;23;20022;-79
2020/12/24 06:46:58;;;;;;;1.75;0.50;;;;;;;9.71;65.66;99128.81;3818711;23;20052;-77
2020/12/24 06:48:30;;;;;;;2.42;0.80;;;;;;;9.75;65.92;99138.16;3817616;23;20081;-78
2020/12/24 06:50:01;;;;;;;3.13;0.70;;;;;;;9.72;66.10;99134.97;3819445;23;20037;-81
2020/12/24 06:51:49;;;;;;;3.63;0.80;;;;;;;9.66;66.17;99129.28;3822911;23;20021;-78
2020/12/24 06:53:31;;;;;;;3.40;0.80;;;;;;;9.67;66.13;99136.31;3828497;23;20025;-77
2020/12/24 06:55:15;;;;;;;1.38;0.50;;;;;;;9.67;66.21;99130.97;3829543;23;20317;-77
2020/12/24 06:56:47;;;;;;;2.63;0.70;;;;;;;9.64;66.44;99130.41;3823829;23;20028;-78
2020/12/24 06:58:39;;;;;;;4.45;1.27;;;;;;;9.63;66.81;99131.44;3823197;23;20026;-78
2020/12/24 07:00:18;;;;;;;2.33;0.63;;;;;;;9.64;66.55;99136.63;3819512;23;20061;-79
2020/12/24 07:02:04;;;;;;;2.35;0.65;;;;;;;9.64;66.54;99138.44;3820727;23;20033;-79
2020/12/24 07:03:36;;;;;;;2.85;0.70;;;;;;;9.63;66.77;99134.94;3820666;23;20045;-78
2020/12/24 07:05:07;;;;;;;1.67;0.50;;;;;;;9.57;66.96;99129.41;3820941;23;20039;-77
2020/12/24 07:06:52;;;;;;;10.52;1.35;;;;;;;9.53;67.42;99123.56;3820563;23;20024;-78
2020/12/24 07:08:46;;;;;;;3.05;0.90;;;;;;;9.49;67.34;99132.91;3824079;23;20021;-78
2020/12/24 07:10:43;;;;;;;1.98;0.73;;;;;;;9.44;67.64;99128.03;3819345;23;20108;-79
2020/12/24 07:12:33;;;;;;;2.22;0.60;;;;;;;9.45;68.00;99137.69;3808866;23;20021;-78
2020/12/24 07:14:04;;;;;;;2.85;0.75;;;;;;;9.42;68.10;99137.16;3828119;23;20021;-77
2020/12/24 07:15:43;;;;;;;2.78;1.02;;;;;;;9.42;68.24;99145.19;3821493;23;20025;-78
2020/12/24 07:17:19;;;;;;;3.60;0.50;;;;;;;9.45;68.54;99145.69;3821704;23;20022;-77
2020/12/24 07:18:51;;;;;;;4.65;0.93;;;;;;;9.39;68.52;99151.66;3822552;23;20029;-78
2020/12/24 07:20:25;;;;;;;3.58;0.77;;;;;;;9.30;68.71;99152.63;3826178;23;20025;-79
2020/12/24 07:21:57;;;;;;;4.35;1.15;;;;;;;9.27;68.99;99148.44;3825692;23;20021;-76
2020/12/24 07:23:30;;;;;;;3.50;0.80;;;;;;;9.26;69.13;99149.44;3828200;23;20025;-78
2020/12/24 07:25:00;;;;;;;5.85;0.90;;;;;;;9.23;69.04;99154.25;3824289;23;20469;-78
2020/12/24 07:26:32;;;;;;;2.92;0.68;;;;;;;9.16;69.28;99152.19;3826317;23;20022;-76
2020/12/24 07:28:14;;;;;;;3.92;0.70;;;;;;;9.11;69.25;99149.19;3827358;23;20088;-78
2020/12/24 07:29:47;;;;;;;5.25;1.10;;;;;;;9.14;69.69;99145.34;3826181;23;20168;-78
2020/12/24 07:31:26;;;;;;;4.82;0.70;;;;;;;9.13;69.71;99160.53;3828157;23;20028;-79
2020/12/24 07:32:58;;;;;;;2.28;0.50;;;;;;;9.11;69.40;99148.38;3817518;23;20018;-79
2020/12/24 07:34:31;;;;;;;4.85;0.80;;;;;;;8.95;70.39;99146.41;3820253;23;20025;-77
2020/12/24 07:36:06;;;;;;;3.10;0.65;;;;;;;9.04;70.04;99134.81;3819076;23;20014;-77